sensor_id;sensor_type;location;lat;lon;timestamp;temperature;humidity
28548;DHT22;15750;49.600;8.746;2022-09-25T00:01:45;21.50;56.00
28548;DHT22;15750;49.600;8.746;2022-09-25T00:04:33;21.40;55.90
28548;DHT22;15750;49.600;8.746;2022-09-25T00:07:20;21.40;55.90
28548;DHT22;15750;49.600;8.746;2022-09-25T00:10:07;21.40;56.00
28548;DHT22;15750;49.600;8.746;2022-09-25T00:12:57;21.40;56.00
28548;DHT22;15750;49.600;8.746;2022-09-25T00:15:46;21.40;56.10
28548;DHT22;15750;49.600;8.746;2022-09-25T00:18:33;21.40;56.10
28548;DHT22;15750;49.600;8.746;2022-09-25T00:21:38;21.40;56.00
28548;DHT22;15750;49.600;8.746;2022-09-25T00:24:25;21.40;56.10
28548;DHT22;15750;49.600;8.746;2022-09-25T00:27:13;21.40;56.10
28548;DHT22;15750;49.600;8.746;2022-09-25T00:30:02;21.40;56.20
28548;DHT22;15750;49.600;8.746;2022-09-25T00:32:50;21.40;56.40
28548;DHT22;15750;49.600;8.746;2022-09-25T00:35:37;21.40;56.30
28548;DHT22;15750;49.600;8.746;2022-09-25T00:38:25;21.40;56.40
28548;DHT22;15750;49.600;8.746;2022-09-25T00:41:13;21.40;56.30
28548;DHT22;15750;49.600;8.746;2022-09-25T00:44:39;21.40;56.30
28548;DHT22;15750;49.600;8.746;2022-09-25T00:47:45;21.40;56.50
28548;DHT22;15750;49.600;8.746;2022-09-25T00:50:43;21.40;56.50
28548;DHT22;15750;49.600;8.746;2022-09-25T00:53:37;21.40;56.50
28548;DHT22;15750;49.600;8.746;2022-09-25T00:56:29;21.40;56.40
28548;DHT22;15750;49.600;8.746;2022-09-25T00:59:21;21.40;56.30
28548;DHT22;15750;49.600;8.746;2022-09-25T01:02:13;21.40;56.30
28548;DHT22;15750;49.600;8.746;2022-09-25T01:05:07;21.40;56.20
28548;DHT22;15750;49.600;8.746;2022-09-25T01:07:58;21.40;56.20
28548;DHT22;15750;49.600;8.746;2022-09-25T01:10:47;21.40;56.20
28548;DHT22;15750;49.600;8.746;2022-09-25T01:13:34;21.40;56.30
28548;DHT22;15750;49.600;8.746;2022-09-25T01:16:26;21.40;56.20
28548;DHT22;15750;49.600;8.746;2022-09-25T01:19:28;21.40;56.20
28548;DHT22;15750;49.600;8.746;2022-09-25T01:22:40;21.40;56.20
28548;DHT22;15750;49.600;8.746;2022-09-25T01:25:49;21.40;56.40
28548;DHT22;15750;49.600;8.746;2022-09-25T01:28:55;21.40;56.30
28548;DHT22;15750;49.600;8.746;2022-09-25T01:31:54;21.40;56.10
28548;DHT22;15750;49.600;8.746;2022-09-25T01:34:53;21.40;56.10
28548;DHT22;15750;49.600;8.746;2022-09-25T01:37:52;21.40;56.20
28548;DHT22;15750;49.600;8.746;2022-09-25T01:40:46;21.40;56.10
28548;DHT22;15750;49.600;8.746;2022-09-25T01:43:37;21.40;56.10
28548;DHT22;15750;49.600;8.746;2022-09-25T01:46:29;21.40;56.10
28548;DHT22;15750;49.600;8.746;2022-09-25T01:49:25;21.40;56.10
28548;DHT22;15750;49.600;8.746;2022-09-25T01:52:17;21.40;56.10
28548;DHT22;15750;49.600;8.746;2022-09-25T01:55:14;21.40;56.10
28548;DHT22;15750;49.600;8.746;2022-09-25T01:58:09;21.40;56.10
28548;DHT22;15750;49.600;8.746;2022-09-25T02:01:02;21.40;56.10
28548;DHT22;15750;49.600;8.746;2022-09-25T02:03:56;21.40;56.10
28548;DHT22;15750;49.600;8.746;2022-09-25T02:06:47;21.40;56.20
28548;DHT22;15750;49.600;8.746;2022-09-25T02:09:38;21.40;56.10
28548;DHT22;15750;49.600;8.746;2022-09-25T02:12:31;21.40;56.20
28548;DHT22;15750;49.600;8.746;2022-09-25T02:15:24;21.40;56.20
28548;DHT22;15750;49.600;8.746;2022-09-25T02:18:15;21.40;56.20
28548;DHT22;15750;49.600;8.746;2022-09-25T02:21:27;21.40;56.20
28548;DHT22;15750;49.600;8.746;2022-09-25T02:24:28;21.40;56.20
28548;DHT22;15750;49.600;8.746;2022-09-25T02:27:20;21.40;56.40
28548;DHT22;15750;49.600;8.746;2022-09-25T02:30:09;21.40;56.20
28548;DHT22;15750;49.600;8.746;2022-09-25T02:32:57;21.40;56.30
28548;DHT22;15750;49.600;8.746;2022-09-25T02:35:45;21.40;56.20
28548;DHT22;15750;49.600;8.746;2022-09-25T02:38:34;21.40;56.30
28548;DHT22;15750;49.600;8.746;2022-09-25T02:41:34;21.40;56.40
28548;DHT22;15750;49.600;8.746;2022-09-25T02:44:34;21.40;56.50
28548;DHT22;15750;49.600;8.746;2022-09-25T02:47:33;21.40;56.50
28548;DHT22;15750;49.600;8.746;2022-09-25T02:50:25;21.40;56.60
28548;DHT22;15750;49.600;8.746;2022-09-25T02:53:17;21.40;56.60
28548;DHT22;15750;49.600;8.746;2022-09-25T02:56:12;21.40;56.50
28548;DHT22;15750;49.600;8.746;2022-09-25T02:59:04;21.30;56.50
28548;DHT22;15750;49.600;8.746;2022-09-25T03:01:54;21.30;57.10
28548;DHT22;15750;49.600;8.746;2022-09-25T03:04:45;21.30;56.50
28548;DHT22;15750;49.600;8.746;2022-09-25T03:07:33;21.30;56.70
28548;DHT22;15750;49.600;8.746;2022-09-25T03:10:41;21.30;56.60
28548;DHT22;15750;49.600;8.746;2022-09-25T03:13:32;21.30;56.60
28548;DHT22;15750;49.600;8.746;2022-09-25T03:16:24;21.30;56.70
28548;DHT22;15750;49.600;8.746;2022-09-25T03:19:17;21.30;56.80
28548;DHT22;15750;49.600;8.746;2022-09-25T03:22:05;21.30;56.70
28548;DHT22;15750;49.600;8.746;2022-09-25T03:24:52;21.30;56.70
28548;DHT22;15750;49.600;8.746;2022-09-25T03:27:39;21.30;56.70
28548;DHT22;15750;49.600;8.746;2022-09-25T03:30:28;21.30;56.70
28548;DHT22;15750;49.600;8.746;2022-09-25T03:33:15;21.30;56.80
28548;DHT22;15750;49.600;8.746;2022-09-25T03:36:09;21.30;57.40
28548;DHT22;15750;49.600;8.746;2022-09-25T03:38:57;21.20;56.70
28548;DHT22;15750;49.600;8.746;2022-09-25T03:41:45;21.20;56.60
28548;DHT22;15750;49.600;8.746;2022-09-25T03:44:32;21.30;56.70
28548;DHT22;15750;49.600;8.746;2022-09-25T03:47:21;21.20;56.60
28548;DHT22;15750;49.600;8.746;2022-09-25T03:50:08;21.20;56.60
28548;DHT22;15750;49.600;8.746;2022-09-25T03:52:55;21.30;56.60
28548;DHT22;15750;49.600;8.746;2022-09-25T03:55:43;21.20;56.60
28548;DHT22;15750;49.600;8.746;2022-09-25T03:58:33;21.20;56.60
28548;DHT22;15750;49.600;8.746;2022-09-25T04:01:22;21.30;56.70
28548;DHT22;15750;49.600;8.746;2022-09-25T04:04:12;21.30;56.70
28548;DHT22;15750;49.600;8.746;2022-09-25T04:06:59;21.20;56.70
28548;DHT22;15750;49.600;8.746;2022-09-25T04:09:46;21.20;56.60
28548;DHT22;15750;49.600;8.746;2022-09-25T04:12:34;21.20;56.70
28548;DHT22;15750;49.600;8.746;2022-09-25T04:15:21;21.20;56.70
28548;DHT22;15750;49.600;8.746;2022-09-25T04:18:08;21.20;56.70
28548;DHT22;15750;49.600;8.746;2022-09-25T04:20:57;21.20;56.70
28548;DHT22;15750;49.600;8.746;2022-09-25T04:23:44;21.20;56.80
28548;DHT22;15750;49.600;8.746;2022-09-25T04:26:52;21.20;56.70
28548;DHT22;15750;49.600;8.746;2022-09-25T04:29:39;21.20;56.70
28548;DHT22;15750;49.600;8.746;2022-09-25T04:32:27;21.20;56.80
28548;DHT22;15750;49.600;8.746;2022-09-25T04:35:32;21.20;56.80
28548;DHT22;15750;49.600;8.746;2022-09-25T04:38:20;21.20;56.80
28548;DHT22;15750;49.600;8.746;2022-09-25T04:41:08;21.20;56.90
28548;DHT22;15750;49.600;8.746;2022-09-25T04:43:55;21.20;56.80
28548;DHT22;15750;49.600;8.746;2022-09-25T04:46:42;21.20;56.80
28548;DHT22;15750;49.600;8.746;2022-09-25T04:49:30;21.10;56.70
28548;DHT22;15750;49.600;8.746;2022-09-25T04:52:18;21.20;56.80
28548;DHT22;15750;49.600;8.746;2022-09-25T04:55:07;21.10;56.80
28548;DHT22;15750;49.600;8.746;2022-09-25T04:57:56;21.10;56.90
28548;DHT22;15750;49.600;8.746;2022-09-25T05:00:45;21.10;56.90
28548;DHT22;15750;49.600;8.746;2022-09-25T05:03:33;21.10;56.80
28548;DHT22;15750;49.600;8.746;2022-09-25T05:06:20;21.10;56.80
28548;DHT22;15750;49.600;8.746;2022-09-25T05:09:08;21.10;56.80
28548;DHT22;15750;49.600;8.746;2022-09-25T05:11:56;21.10;56.80
28548;DHT22;15750;49.600;8.746;2022-09-25T05:14:44;21.10;56.80
28548;DHT22;15750;49.600;8.746;2022-09-25T05:17:32;21.10;56.80
28548;DHT22;15750;49.600;8.746;2022-09-25T05:20:19;21.10;56.70
28548;DHT22;15750;49.600;8.746;2022-09-25T05:23:06;21.10;56.70
28548;DHT22;15750;49.600;8.746;2022-09-25T05:25:54;21.20;56.80
28548;DHT22;15750;49.600;8.746;2022-09-25T05:28:47;21.20;56.80
28548;DHT22;15750;49.600;8.746;2022-09-25T05:31:34;21.20;56.80
28548;DHT22;15750;49.600;8.746;2022-09-25T05:34:23;21.20;56.70
28548;DHT22;15750;49.600;8.746;2022-09-25T05:37:10;21.20;56.80
28548;DHT22;15750;49.600;8.746;2022-09-25T05:39:57;21.20;56.70
28548;DHT22;15750;49.600;8.746;2022-09-25T05:42:44;21.20;56.70
28548;DHT22;15750;49.600;8.746;2022-09-25T05:45:32;21.20;56.70
28548;DHT22;15750;49.600;8.746;2022-09-25T05:48:20;21.20;56.70
28548;DHT22;15750;49.600;8.746;2022-09-25T05:51:08;21.20;56.70
28548;DHT22;15750;49.600;8.746;2022-09-25T05:53:56;21.20;56.80
28548;DHT22;15750;49.600;8.746;2022-09-25T05:56:45;21.20;56.80
28548;DHT22;15750;49.600;8.746;2022-09-25T05:59:32;21.20;56.80
28548;DHT22;15750;49.600;8.746;2022-09-25T06:02:20;21.20;56.80
28548;DHT22;15750;49.600;8.746;2022-09-25T06:05:08;21.20;56.70
28548;DHT22;15750;49.600;8.746;2022-09-25T06:07:55;21.20;56.70
28548;DHT22;15750;49.600;8.746;2022-09-25T06:10:43;21.20;56.80
28548;DHT22;15750;49.600;8.746;2022-09-25T06:13:31;21.20;56.90
28548;DHT22;15750;49.600;8.746;2022-09-25T06:16:19;21.10;56.80
28548;DHT22;15750;49.600;8.746;2022-09-25T06:19:09;21.20;56.80
28548;DHT22;15750;49.600;8.746;2022-09-25T06:21:56;21.20;57.00
28548;DHT22;15750;49.600;8.746;2022-09-25T06:24:43;21.20;56.90
28548;DHT22;15750;49.600;8.746;2022-09-25T06:27:30;21.20;56.90
28548;DHT22;15750;49.600;8.746;2022-09-25T06:30:18;21.20;56.90
28548;DHT22;15750;49.600;8.746;2022-09-25T06:33:09;21.20;56.90
28548;DHT22;15750;49.600;8.746;2022-09-25T06:35:58;21.20;57.70
28548;DHT22;15750;49.600;8.746;2022-09-25T06:38:46;21.20;57.00
28548;DHT22;15750;49.600;8.746;2022-09-25T06:41:34;21.20;57.00
28548;DHT22;15750;49.600;8.746;2022-09-25T06:44:21;21.20;57.00
28548;DHT22;15750;49.600;8.746;2022-09-25T06:47:08;21.20;57.00
28548;DHT22;15750;49.600;8.746;2022-09-25T06:50:04;21.20;57.00
28548;DHT22;15750;49.600;8.746;2022-09-25T06:52:54;21.20;57.00
28548;DHT22;15750;49.600;8.746;2022-09-25T06:55:41;21.20;57.10
28548;DHT22;15750;49.600;8.746;2022-09-25T06:58:30;21.20;57.10
28548;DHT22;15750;49.600;8.746;2022-09-25T07:01:21;21.20;57.10
28548;DHT22;15750;49.600;8.746;2022-09-25T07:04:08;21.20;57.10
28548;DHT22;15750;49.600;8.746;2022-09-25T07:06:54;21.20;57.20
28548;DHT22;15750;49.600;8.746;2022-09-25T07:09:45;21.20;57.80
28548;DHT22;15750;49.600;8.746;2022-09-25T07:12:33;21.20;57.30
28548;DHT22;15750;49.600;8.746;2022-09-25T07:15:20;21.20;57.20
28548;DHT22;15750;49.600;8.746;2022-09-25T07:18:07;21.20;57.20
28548;DHT22;15750;49.600;8.746;2022-09-25T07:20:59;21.20;57.20
28548;DHT22;15750;49.600;8.746;2022-09-25T07:23:48;21.20;57.30
28548;DHT22;15750;49.600;8.746;2022-09-25T07:26:39;21.20;57.30
28548;DHT22;15750;49.600;8.746;2022-09-25T07:29:27;21.20;57.30
28548;DHT22;15750;49.600;8.746;2022-09-25T07:32:15;21.20;57.30
28548;DHT22;15750;49.600;8.746;2022-09-25T07:35:02;21.20;57.30
28548;DHT22;15750;49.600;8.746;2022-09-25T07:37:50;21.20;57.30
28548;DHT22;15750;49.600;8.746;2022-09-25T07:40:37;21.20;57.30
28548;DHT22;15750;49.600;8.746;2022-09-25T07:43:25;21.20;57.30
28548;DHT22;15750;49.600;8.746;2022-09-25T07:46:13;21.20;57.30
28548;DHT22;15750;49.600;8.746;2022-09-25T07:49:00;21.10;57.30
28548;DHT22;15750;49.600;8.746;2022-09-25T07:51:47;21.20;57.30
28548;DHT22;15750;49.600;8.746;2022-09-25T07:54:34;21.20;57.30
28548;DHT22;15750;49.600;8.746;2022-09-25T07:57:22;21.20;57.40
28548;DHT22;15750;49.600;8.746;2022-09-25T08:00:12;21.10;57.30
28548;DHT22;15750;49.600;8.746;2022-09-25T08:03:00;21.10;57.40
28548;DHT22;15750;49.600;8.746;2022-09-25T08:05:47;21.20;57.40
28548;DHT22;15750;49.600;8.746;2022-09-25T08:08:34;21.20;57.40
28548;DHT22;15750;49.600;8.746;2022-09-25T08:11:21;21.20;57.40
28548;DHT22;15750;49.600;8.746;2022-09-25T08:14:10;21.20;57.30
28548;DHT22;15750;49.600;8.746;2022-09-25T08:17:00;21.20;57.40
28548;DHT22;15750;49.600;8.746;2022-09-25T08:19:47;21.20;57.40
28548;DHT22;15750;49.600;8.746;2022-09-25T08:22:35;21.20;57.40
28548;DHT22;15750;49.600;8.746;2022-09-25T08:25:22;21.20;57.40
28548;DHT22;15750;49.600;8.746;2022-09-25T08:28:09;21.20;57.40
28548;DHT22;15750;49.600;8.746;2022-09-25T08:30:57;21.20;57.40
28548;DHT22;15750;49.600;8.746;2022-09-25T08:33:47;21.20;57.40
28548;DHT22;15750;49.600;8.746;2022-09-25T08:36:35;21.30;57.40
28548;DHT22;15750;49.600;8.746;2022-09-25T08:39:22;21.30;57.40
28548;DHT22;15750;49.600;8.746;2022-09-25T08:42:15;21.30;57.50
28548;DHT22;15750;49.600;8.746;2022-09-25T08:45:10;21.30;57.50
28548;DHT22;15750;49.600;8.746;2022-09-25T08:48:24;21.30;57.40
28548;DHT22;15750;49.600;8.746;2022-09-25T08:51:36;21.30;57.30
28548;DHT22;15750;49.600;8.746;2022-09-25T08:54:26;21.30;57.30
28548;DHT22;15750;49.600;8.746;2022-09-25T08:57:22;21.30;57.20
28548;DHT22;15750;49.600;8.746;2022-09-25T09:00:18;21.30;57.30
28548;DHT22;15750;49.600;8.746;2022-09-25T09:03:09;21.30;57.20
28548;DHT22;15750;49.600;8.746;2022-09-25T09:06:01;21.30;57.10
28548;DHT22;15750;49.600;8.746;2022-09-25T09:08:58;21.30;57.20
28548;DHT22;15750;49.600;8.746;2022-09-25T09:11:53;21.30;57.20
28548;DHT22;15750;49.600;8.746;2022-09-25T09:14:46;21.40;57.10
28548;DHT22;15750;49.600;8.746;2022-09-25T09:17:39;21.40;57.10
28548;DHT22;15750;49.600;8.746;2022-09-25T09:20:32;21.30;57.10
28548;DHT22;15750;49.600;8.746;2022-09-25T09:23:26;21.30;57.00
28548;DHT22;15750;49.600;8.746;2022-09-25T09:26:25;21.40;57.00
28548;DHT22;15750;49.600;8.746;2022-09-25T09:29:26;21.40;57.20
28548;DHT22;15750;49.600;8.746;2022-09-25T09:32:42;21.40;57.50
28548;DHT22;15750;49.600;8.746;2022-09-25T09:35:50;21.40;57.50
28548;DHT22;15750;49.600;8.746;2022-09-25T09:38:52;21.40;57.30
28548;DHT22;15750;49.600;8.746;2022-09-25T09:41:53;21.40;57.30
28548;DHT22;15750;49.600;8.746;2022-09-25T09:44:56;21.40;57.30
28548;DHT22;15750;49.600;8.746;2022-09-25T09:47:53;21.30;57.20
28548;DHT22;15750;49.600;8.746;2022-09-25T09:50:47;21.40;57.20
28548;DHT22;15750;49.600;8.746;2022-09-25T09:53:40;21.30;57.10
28548;DHT22;15750;49.600;8.746;2022-09-25T09:56:30;21.30;57.10
28548;DHT22;15750;49.600;8.746;2022-09-25T09:59:26;21.30;57.00
28548;DHT22;15750;49.600;8.746;2022-09-25T10:02:31;21.40;57.20
28548;DHT22;15750;49.600;8.746;2022-09-25T10:05:24;21.30;57.20
28548;DHT22;15750;49.600;8.746;2022-09-25T10:08:14;21.30;57.10
28548;DHT22;15750;49.600;8.746;2022-09-25T10:11:08;21.40;57.10
28548;DHT22;15750;49.600;8.746;2022-09-25T10:14:02;21.30;57.10
28548;DHT22;15750;49.600;8.746;2022-09-25T10:16:51;21.30;57.10
28548;DHT22;15750;49.600;8.746;2022-09-25T10:19:47;21.30;57.10
28548;DHT22;15750;49.600;8.746;2022-09-25T10:22:37;21.30;57.20
28548;DHT22;15750;49.600;8.746;2022-09-25T10:25:37;21.30;57.20
28548;DHT22;15750;49.600;8.746;2022-09-25T10:28:27;21.30;57.20
28548;DHT22;15750;49.600;8.746;2022-09-25T10:31:17;21.30;57.20
28548;DHT22;15750;49.600;8.746;2022-09-25T10:34:19;21.30;57.20
28548;DHT22;15750;49.600;8.746;2022-09-25T10:37:13;21.40;57.50
28548;DHT22;15750;49.600;8.746;2022-09-25T10:40:16;21.40;57.40
28548;DHT22;15750;49.600;8.746;2022-09-25T10:43:17;21.40;57.30
28548;DHT22;15750;49.600;8.746;2022-09-25T10:46:12;21.40;57.40
28548;DHT22;15750;49.600;8.746;2022-09-25T10:49:14;21.40;57.30
28548;DHT22;15750;49.600;8.746;2022-09-25T10:52:21;21.40;57.50
28548;DHT22;15750;49.600;8.746;2022-09-25T10:55:13;21.40;57.30
28548;DHT22;15750;49.600;8.746;2022-09-25T11:01:12;21.40;57.50
28548;DHT22;15750;49.600;8.746;2022-09-25T11:04:05;21.40;57.40
28548;DHT22;15750;49.600;8.746;2022-09-25T11:07:02;21.40;57.30
28548;DHT22;15750;49.600;8.746;2022-09-25T11:09:51;21.40;57.30
28548;DHT22;15750;49.600;8.746;2022-09-25T11:12:45;21.40;57.30
28548;DHT22;15750;49.600;8.746;2022-09-25T11:15:32;21.40;57.30
28548;DHT22;15750;49.600;8.746;2022-09-25T11:18:37;21.40;57.30
28548;DHT22;15750;49.600;8.746;2022-09-25T11:21:30;21.40;57.40
28548;DHT22;15750;49.600;8.746;2022-09-25T11:24:23;21.40;57.30
28548;DHT22;15750;49.600;8.746;2022-09-25T11:27:19;21.40;57.40
28548;DHT22;15750;49.600;8.746;2022-09-25T11:30:12;21.50;57.40
28548;DHT22;15750;49.600;8.746;2022-09-25T11:33:05;21.50;57.50
28548;DHT22;15750;49.600;8.746;2022-09-25T11:36:02;21.50;57.50
28548;DHT22;15750;49.600;8.746;2022-09-25T11:38:53;21.50;57.40
28548;DHT22;15750;49.600;8.746;2022-09-25T11:42:05;21.50;57.40
28548;DHT22;15750;49.600;8.746;2022-09-25T11:45:02;21.50;57.50
28548;DHT22;15750;49.600;8.746;2022-09-25T11:47:57;21.50;57.50
28548;DHT22;15750;49.600;8.746;2022-09-25T11:50:53;21.50;57.50
28548;DHT22;15750;49.600;8.746;2022-09-25T11:54:05;21.60;57.70
28548;DHT22;15750;49.600;8.746;2022-09-25T11:57:24;21.60;57.50
28548;DHT22;15750;49.600;8.746;2022-09-25T12:00:21;21.60;57.50
28548;DHT22;15750;49.600;8.746;2022-09-25T12:03:23;21.60;57.50
28548;DHT22;15750;49.600;8.746;2022-09-25T12:09:58;21.60;57.80
28548;DHT22;15750;49.600;8.746;2022-09-25T12:12:56;21.60;57.70
28548;DHT22;15750;49.600;8.746;2022-09-25T12:15:54;21.70;57.80
28548;DHT22;15750;49.600;8.746;2022-09-25T12:19:04;21.70;57.70
28548;DHT22;15750;49.600;8.746;2022-09-25T12:22:03;21.60;57.60
28548;DHT22;15750;49.600;8.746;2022-09-25T12:25:00;21.60;57.40
28548;DHT22;15750;49.600;8.746;2022-09-25T12:27:56;21.70;57.40
28548;DHT22;15750;49.600;8.746;2022-09-25T12:30:54;21.70;57.50
28548;DHT22;15750;49.600;8.746;2022-09-25T12:33:54;21.70;57.50
28548;DHT22;15750;49.600;8.746;2022-09-25T12:36:47;21.70;57.40
28548;DHT22;15750;49.600;8.746;2022-09-25T12:39:41;21.70;57.50
28548;DHT22;15750;49.600;8.746;2022-09-25T12:42:38;21.70;57.50
28548;DHT22;15750;49.600;8.746;2022-09-25T12:45:35;21.70;57.60
28548;DHT22;15750;49.600;8.746;2022-09-25T12:48:30;21.70;57.50
28548;DHT22;15750;49.600;8.746;2022-09-25T12:51:23;21.70;57.50
28548;DHT22;15750;49.600;8.746;2022-09-25T12:54:21;21.70;57.50
28548;DHT22;15750;49.600;8.746;2022-09-25T12:57:15;21.70;57.60
28548;DHT22;15750;49.600;8.746;2022-09-25T13:00:10;21.70;57.60
28548;DHT22;15750;49.600;8.746;2022-09-25T13:03:13;21.70;57.80
28548;DHT22;15750;49.600;8.746;2022-09-25T13:06:06;21.70;57.70
28548;DHT22;15750;49.600;8.746;2022-09-25T13:09:00;21.70;57.70
28548;DHT22;15750;49.600;8.746;2022-09-25T13:11:53;21.70;57.60
28548;DHT22;15750;49.600;8.746;2022-09-25T13:14:45;21.70;57.60
28548;DHT22;15750;49.600;8.746;2022-09-25T13:17:37;21.70;57.70
28548;DHT22;15750;49.600;8.746;2022-09-25T13:20:46;21.70;57.60
28548;DHT22;15750;49.600;8.746;2022-09-25T13:23:36;21.70;57.60
28548;DHT22;15750;49.600;8.746;2022-09-25T13:26:25;21.70;57.50
28548;DHT22;15750;49.600;8.746;2022-09-25T13:29:20;21.70;57.50
28548;DHT22;15750;49.600;8.746;2022-09-25T13:32:14;21.70;57.50
28548;DHT22;15750;49.600;8.746;2022-09-25T13:35:05;21.70;58.00
28548;DHT22;15750;49.600;8.746;2022-09-25T13:38:14;21.70;57.30
28548;DHT22;15750;49.600;8.746;2022-09-25T13:41:23;21.70;57.40
28548;DHT22;15750;49.600;8.746;2022-09-25T13:47:54;21.70;57.50
28548;DHT22;15750;49.600;8.746;2022-09-25T13:50:49;21.70;57.20
28548;DHT22;15750;49.600;8.746;2022-09-25T13:54:26;21.70;57.30
28548;DHT22;15750;49.600;8.746;2022-09-25T13:57:14;21.70;57.40
28548;DHT22;15750;49.600;8.746;2022-09-25T14:00:03;21.70;57.20
28548;DHT22;15750;49.600;8.746;2022-09-25T14:02:52;21.70;57.30
28548;DHT22;15750;49.600;8.746;2022-09-25T14:05:45;21.70;57.20
28548;DHT22;15750;49.600;8.746;2022-09-25T14:08:33;21.70;57.10
28548;DHT22;15750;49.600;8.746;2022-09-25T14:11:25;21.70;57.10
28548;DHT22;15750;49.600;8.746;2022-09-25T14:14:28;21.70;57.00
28548;DHT22;15750;49.600;8.746;2022-09-25T14:17:17;21.70;56.90
28548;DHT22;15750;49.600;8.746;2022-09-25T14:23:23;21.60;56.80
28548;DHT22;15750;49.600;8.746;2022-09-25T14:26:17;21.60;56.80
28548;DHT22;15750;49.600;8.746;2022-09-25T14:29:15;21.60;56.80
28548;DHT22;15750;49.600;8.746;2022-09-25T14:32:11;21.60;56.90
28548;DHT22;15750;49.600;8.746;2022-09-25T14:35:32;21.60;56.80
28548;DHT22;15750;49.600;8.746;2022-09-25T14:38:34;21.60;56.80
28548;DHT22;15750;49.600;8.746;2022-09-25T14:45:34;21.60;56.70
28548;DHT22;15750;49.600;8.746;2022-09-25T14:48:42;21.60;56.70
28548;DHT22;15750;49.600;8.746;2022-09-25T14:51:37;21.60;56.60
28548;DHT22;15750;49.600;8.746;2022-09-25T14:54:28;21.60;56.60
28548;DHT22;15750;49.600;8.746;2022-09-25T14:57:24;21.60;56.60
28548;DHT22;15750;49.600;8.746;2022-09-25T15:00:16;21.50;56.60
28548;DHT22;15750;49.600;8.746;2022-09-25T15:03:12;21.50;56.50
28548;DHT22;15750;49.600;8.746;2022-09-25T15:06:00;21.50;56.50
28548;DHT22;15750;49.600;8.746;2022-09-25T15:08:47;21.50;56.50
28548;DHT22;15750;49.600;8.746;2022-09-25T15:11:39;21.50;56.50
28548;DHT22;15750;49.600;8.746;2022-09-25T15:14:27;21.50;56.40
28548;DHT22;15750;49.600;8.746;2022-09-25T15:17:14;21.50;56.50
28548;DHT22;15750;49.600;8.746;2022-09-25T15:20:12;21.50;56.40
28548;DHT22;15750;49.600;8.746;2022-09-25T15:23:03;21.40;56.20
28548;DHT22;15750;49.600;8.746;2022-09-25T15:25:54;21.50;56.20
28548;DHT22;15750;49.600;8.746;2022-09-25T15:28:41;21.40;56.10
28548;DHT22;15750;49.600;8.746;2022-09-25T15:31:34;21.40;56.10
28548;DHT22;15750;49.600;8.746;2022-09-25T15:34:24;21.40;56.10
28548;DHT22;15750;49.600;8.746;2022-09-25T15:37:19;21.40;56.10
28548;DHT22;15750;49.600;8.746;2022-09-25T15:40:20;21.40;56.10
28548;DHT22;15750;49.600;8.746;2022-09-25T15:43:11;21.40;56.10
28548;DHT22;15750;49.600;8.746;2022-09-25T15:46:26;21.40;56.10
28548;DHT22;15750;49.600;8.746;2022-09-25T15:49:24;21.40;56.00
28548;DHT22;15750;49.600;8.746;2022-09-25T15:52:17;21.40;55.90
28548;DHT22;15750;49.600;8.746;2022-09-25T15:55:10;21.40;55.90
28548;DHT22;15750;49.600;8.746;2022-09-25T15:58:09;21.40;55.90
28548;DHT22;15750;49.600;8.746;2022-09-25T16:01:00;21.40;55.80
28548;DHT22;15750;49.600;8.746;2022-09-25T16:04:07;21.40;55.90
28548;DHT22;15750;49.600;8.746;2022-09-25T16:07:23;21.40;55.90
28548;DHT22;15750;49.600;8.746;2022-09-25T16:10:31;21.40;55.80
28548;DHT22;15750;49.600;8.746;2022-09-25T16:13:20;21.40;55.80
28548;DHT22;15750;49.600;8.746;2022-09-25T16:16:22;21.40;55.90
28548;DHT22;15750;49.600;8.746;2022-09-25T16:19:27;21.40;55.80
28548;DHT22;15750;49.600;8.746;2022-09-25T16:22:21;21.40;55.80
28548;DHT22;15750;49.600;8.746;2022-09-25T16:25:19;21.40;55.80
28548;DHT22;15750;49.600;8.746;2022-09-25T16:28:15;21.40;55.80
28548;DHT22;15750;49.600;8.746;2022-09-25T16:31:05;21.40;55.80
28548;DHT22;15750;49.600;8.746;2022-09-25T16:33:54;21.40;55.90
28548;DHT22;15750;49.600;8.746;2022-09-25T16:36:44;21.40;55.90
28548;DHT22;15750;49.600;8.746;2022-09-25T16:39:35;21.40;55.80
28548;DHT22;15750;49.600;8.746;2022-09-25T16:42:29;21.40;55.80
28548;DHT22;15750;49.600;8.746;2022-09-25T16:45:22;21.40;55.70
28548;DHT22;15750;49.600;8.746;2022-09-25T16:48:29;21.40;55.70
28548;DHT22;15750;49.600;8.746;2022-09-25T16:51:20;21.40;55.60
28548;DHT22;15750;49.600;8.746;2022-09-25T16:54:12;21.40;55.60
28548;DHT22;15750;49.600;8.746;2022-09-25T16:57:02;21.40;55.60
28548;DHT22;15750;49.600;8.746;2022-09-25T16:59:50;21.40;55.60
28548;DHT22;15750;49.600;8.746;2022-09-25T17:02:40;21.30;55.60
28548;DHT22;15750;49.600;8.746;2022-09-25T17:05:30;21.40;55.60
28548;DHT22;15750;49.600;8.746;2022-09-25T17:08:19;21.30;55.60
28548;DHT22;15750;49.600;8.746;2022-09-25T17:11:09;21.30;55.60
28548;DHT22;15750;49.600;8.746;2022-09-25T17:13:57;21.40;55.60
28548;DHT22;15750;49.600;8.746;2022-09-25T17:16:45;21.30;55.60
28548;DHT22;15750;49.600;8.746;2022-09-25T17:19:32;21.30;55.60
28548;DHT22;15750;49.600;8.746;2022-09-25T17:22:19;21.30;55.70
28548;DHT22;15750;49.600;8.746;2022-09-25T17:25:19;21.30;55.60
28548;DHT22;15750;49.600;8.746;2022-09-25T17:28:10;21.30;56.30
28548;DHT22;15750;49.600;8.746;2022-09-25T17:30:59;21.30;55.70
28548;DHT22;15750;49.600;8.746;2022-09-25T17:33:47;21.30;55.70
28548;DHT22;15750;49.600;8.746;2022-09-25T17:36:35;21.20;55.70
28548;DHT22;15750;49.600;8.746;2022-09-25T17:39:22;21.20;55.70
28548;DHT22;15750;49.600;8.746;2022-09-25T17:42:10;21.20;55.70
28548;DHT22;15750;49.600;8.746;2022-09-25T17:44:57;21.20;55.70
28548;DHT22;15750;49.600;8.746;2022-09-25T17:47:46;21.20;55.60
28548;DHT22;15750;49.600;8.746;2022-09-25T17:50:33;21.20;55.70
28548;DHT22;15750;49.600;8.746;2022-09-25T17:53:22;21.10;55.70
28548;DHT22;15750;49.600;8.746;2022-09-25T17:56:11;21.20;55.60
28548;DHT22;15750;49.600;8.746;2022-09-25T17:58:58;21.10;55.60
28548;DHT22;15750;49.600;8.746;2022-09-25T18:01:46;21.20;55.70
28548;DHT22;15750;49.600;8.746;2022-09-25T18:04:35;21.10;55.60
28548;DHT22;15750;49.600;8.746;2022-09-25T18:07:22;21.10;55.60
28548;DHT22;15750;49.600;8.746;2022-09-25T18:10:15;21.10;55.60
28548;DHT22;15750;49.600;8.746;2022-09-25T18:13:03;21.10;55.60
28548;DHT22;15750;49.600;8.746;2022-09-25T18:15:53;21.10;55.50
28548;DHT22;15750;49.600;8.746;2022-09-25T18:18:41;21.00;55.60
28548;DHT22;15750;49.600;8.746;2022-09-25T18:21:48;21.00;55.60
28548;DHT22;15750;49.600;8.746;2022-09-25T18:24:53;21.00;55.60
28548;DHT22;15750;49.600;8.746;2022-09-25T18:27:42;21.10;55.70
28548;DHT22;15750;49.600;8.746;2022-09-25T18:30:30;21.00;55.70